sensor_id;sensor_type;location;lat;lon;timestamp;temperature;humidity
435;DHT22;204;48.942;9.256;2023-11-19T00:00:25;10.00;1.00
435;DHT22;204;48.942;9.256;2023-11-19T00:02:50;10.00;1.00
435;DHT22;204;48.942;9.256;2023-11-19T00:05:16;9.90;1.00
435;DHT22;204;48.942;9.256;2023-11-19T00:07:42;10.00;1.00
435;DHT22;204;48.942;9.256;2023-11-19T00:10:12;10.00;1.00
435;DHT22;204;48.942;9.256;2023-11-19T00:12:42;10.00;1.00
435;DHT22;204;48.942;9.256;2023-11-19T00:15:09;10.00;1.00
435;DHT22;204;48.942;9.256;2023-11-19T00:17:37;9.90;1.00
435;DHT22;204;48.942;9.256;2023-11-19T00:20:06;10.00;1.00
435;DHT22;204;48.942;9.256;2023-11-19T00:22:31;10.00;1.00
435;DHT22;204;48.942;9.256;2023-11-19T00:24:58;10.10;1.00
435;DHT22;204;48.942;9.256;2023-11-19T00:27:25;10.00;1.00
435;DHT22;204;48.942;9.256;2023-11-19T00:29:50;10.10;1.00
435;DHT22;204;48.942;9.256;2023-11-19T00:32:16;10.10;1.00
435;DHT22;204;48.942;9.256;2023-11-19T00:34:46;10.10;1.00
435;DHT22;204;48.942;9.256;2023-11-19T00:37:15;10.20;1.00
435;DHT22;204;48.942;9.256;2023-11-19T00:39:42;10.20;1.00
435;DHT22;204;48.942;9.256;2023-11-19T00:42:07;10.20;1.00
435;DHT22;204;48.942;9.256;2023-11-19T00:44:33;10.20;1.00
435;DHT22;204;48.942;9.256;2023-11-19T00:46:59;10.30;1.00
435;DHT22;204;48.942;9.256;2023-11-19T00:49:25;10.30;1.00
435;DHT22;204;48.942;9.256;2023-11-19T00:51:51;10.30;1.00
435;DHT22;204;48.942;9.256;2023-11-19T00:54:16;10.40;1.00
435;DHT22;204;48.942;9.256;2023-11-19T00:56:42;10.30;1.00
435;DHT22;204;48.942;9.256;2023-11-19T00:59:08;10.30;1.00
435;DHT22;204;48.942;9.256;2023-11-19T01:01:33;10.30;1.00
435;DHT22;204;48.942;9.256;2023-11-19T01:03:59;10.30;1.00
435;DHT22;204;48.942;9.256;2023-11-19T01:06:30;10.30;1.00
435;DHT22;204;48.942;9.256;2023-11-19T01:08:57;10.30;1.00
435;DHT22;204;48.942;9.256;2023-11-19T01:11:23;10.30;1.00
435;DHT22;204;48.942;9.256;2023-11-19T01:13:49;10.30;1.00
435;DHT22;204;48.942;9.256;2023-11-19T01:16:16;10.30;1.00
435;DHT22;204;48.942;9.256;2023-11-19T01:18:42;10.30;1.00
435;DHT22;204;48.942;9.256;2023-11-19T01:21:07;10.30;1.00
435;DHT22;204;48.942;9.256;2023-11-19T01:23:34;10.30;1.00
435;DHT22;204;48.942;9.256;2023-11-19T01:25:59;10.30;1.00
435;DHT22;204;48.942;9.256;2023-11-19T01:28:25;10.40;1.00
435;DHT22;204;48.942;9.256;2023-11-19T01:30:51;10.40;1.00
435;DHT22;204;48.942;9.256;2023-11-19T01:33:16;10.40;1.00
435;DHT22;204;48.942;9.256;2023-11-19T01:35:42;10.40;1.00
435;DHT22;204;48.942;9.256;2023-11-19T01:38:08;10.50;1.00
435;DHT22;204;48.942;9.256;2023-11-19T01:40:34;10.50;1.00
435;DHT22;204;48.942;9.256;2023-11-19T01:43:02;10.50;1.00
435;DHT22;204;48.942;9.256;2023-11-19T01:45:28;10.50;1.00
435;DHT22;204;48.942;9.256;2023-11-19T01:47:55;10.50;1.00
435;DHT22;204;48.942;9.256;2023-11-19T01:50:21;10.50;1.00
435;DHT22;204;48.942;9.256;2023-11-19T01:52:48;10.60;1.00
435;DHT22;204;48.942;9.256;2023-11-19T01:55:14;10.60;1.00
435;DHT22;204;48.942;9.256;2023-11-19T01:57:40;10.60;1.00
435;DHT22;204;48.942;9.256;2023-11-19T02:00:07;10.60;1.00
435;DHT22;204;48.942;9.256;2023-11-19T02:02:37;10.60;1.00
435;DHT22;204;48.942;9.256;2023-11-19T02:05:03;10.60;1.00
435;DHT22;204;48.942;9.256;2023-11-19T02:07:28;10.50;1.00
435;DHT22;204;48.942;9.256;2023-11-19T02:09:54;10.50;1.00
435;DHT22;204;48.942;9.256;2023-11-19T02:12:20;10.40;1.00
435;DHT22;204;48.942;9.256;2023-11-19T02:14:46;10.40;1.00
435;DHT22;204;48.942;9.256;2023-11-19T02:17:30;10.40;1.00
435;DHT22;204;48.942;9.256;2023-11-19T02:20:00;10.30;1.00
435;DHT22;204;48.942;9.256;2023-11-19T02:22:26;10.30;1.00
435;DHT22;204;48.942;9.256;2023-11-19T02:24:54;10.30;1.00
435;DHT22;204;48.942;9.256;2023-11-19T02:30:11;10.30;1.00
435;DHT22;204;48.942;9.256;2023-11-19T02:32:36;10.40;1.00
435;DHT22;204;48.942;9.256;2023-11-19T02:35:06;10.40;1.00
435;DHT22;204;48.942;9.256;2023-11-19T02:37:34;10.40;1.00
435;DHT22;204;48.942;9.256;2023-11-19T02:39:59;10.50;1.00
435;DHT22;204;48.942;9.256;2023-11-19T02:42:34;10.50;1.00
435;DHT22;204;48.942;9.256;2023-11-19T02:45:01;10.50;1.00
435;DHT22;204;48.942;9.256;2023-11-19T02:47:27;10.50;1.00
435;DHT22;204;48.942;9.256;2023-11-19T02:49:55;10.50;1.00
435;DHT22;204;48.942;9.256;2023-11-19T02:52:21;10.50;1.00
435;DHT22;204;48.942;9.256;2023-11-19T02:54:47;10.50;1.00
435;DHT22;204;48.942;9.256;2023-11-19T02:57:12;10.50;1.00
435;DHT22;204;48.942;9.256;2023-11-19T02:59:39;10.50;1.00
435;DHT22;204;48.942;9.256;2023-11-19T03:02:07;10.50;1.00
435;DHT22;204;48.942;9.256;2023-11-19T03:04:36;10.60;1.00
435;DHT22;204;48.942;9.256;2023-11-19T03:07:05;10.60;1.00
435;DHT22;204;48.942;9.256;2023-11-19T03:09:30;10.70;1.00
435;DHT22;204;48.942;9.256;2023-11-19T03:11:56;10.70;1.00
435;DHT22;204;48.942;9.256;2023-11-19T03:14:21;10.70;1.00
435;DHT22;204;48.942;9.256;2023-11-19T03:16:48;10.70;1.00
435;DHT22;204;48.942;9.256;2023-11-19T03:19:14;10.70;1.00
435;DHT22;204;48.942;9.256;2023-11-19T03:21:40;10.60;1.00
435;DHT22;204;48.942;9.256;2023-11-19T03:24:06;10.60;1.00
435;DHT22;204;48.942;9.256;2023-11-19T03:26:32;10.60;1.00
435;DHT22;204;48.942;9.256;2023-11-19T03:28:59;10.70;1.00
435;DHT22;204;48.942;9.256;2023-11-19T03:31:25;10.70;1.00
435;DHT22;204;48.942;9.256;2023-11-19T03:33:51;10.70;1.00
435;DHT22;204;48.942;9.256;2023-11-19T03:36:16;10.60;1.00
435;DHT22;204;48.942;9.256;2023-11-19T03:38:42;10.60;1.00
435;DHT22;204;48.942;9.256;2023-11-19T03:41:14;10.70;1.00
435;DHT22;204;48.942;9.256;2023-11-19T03:43:41;10.60;1.00
435;DHT22;204;48.942;9.256;2023-11-19T03:46:19;10.70;1.00
435;DHT22;204;48.942;9.256;2023-11-19T03:48:47;10.70;1.00
435;DHT22;204;48.942;9.256;2023-11-19T03:51:13;10.70;1.00
435;DHT22;204;48.942;9.256;2023-11-19T03:53:44;10.70;1.00
435;DHT22;204;48.942;9.256;2023-11-19T03:56:10;10.80;1.00
435;DHT22;204;48.942;9.256;2023-11-19T03:58:37;10.80;1.00
435;DHT22;204;48.942;9.256;2023-11-19T04:01:04;10.90;1.00
435;DHT22;204;48.942;9.256;2023-11-19T04:03:30;11.00;1.00
435;DHT22;204;48.942;9.256;2023-11-19T04:05:56;11.00;1.00
435;DHT22;204;48.942;9.256;2023-11-19T04:08:22;11.10;1.00
435;DHT22;204;48.942;9.256;2023-11-19T04:10:47;11.10;1.00
435;DHT22;204;48.942;9.256;2023-11-19T04:13:13;11.10;1.00
435;DHT22;204;48.942;9.256;2023-11-19T04:15:39;11.20;1.00
435;DHT22;204;48.942;9.256;2023-11-19T04:18:04;11.20;1.00
435;DHT22;204;48.942;9.256;2023-11-19T04:20:30;11.30;1.00
435;DHT22;204;48.942;9.256;2023-11-19T04:22:57;11.30;1.00
435;DHT22;204;48.942;9.256;2023-11-19T04:25:23;11.40;1.00
435;DHT22;204;48.942;9.256;2023-11-19T04:27:51;11.40;1.00
435;DHT22;204;48.942;9.256;2023-11-19T04:30:17;11.40;1.00
435;DHT22;204;48.942;9.256;2023-11-19T04:32:43;11.40;1.00
435;DHT22;204;48.942;9.256;2023-11-19T04:35:09;11.50;1.00
435;DHT22;204;48.942;9.256;2023-11-19T04:37:35;11.50;1.00
435;DHT22;204;48.942;9.256;2023-11-19T04:40:01;11.50;1.00
435;DHT22;204;48.942;9.256;2023-11-19T04:42:26;11.50;1.00
435;DHT22;204;48.942;9.256;2023-11-19T04:44:52;11.60;1.00
435;DHT22;204;48.942;9.256;2023-11-19T04:47:17;11.60;1.00
435;DHT22;204;48.942;9.256;2023-11-19T04:49:43;11.60;1.00
435;DHT22;204;48.942;9.256;2023-11-19T04:52:09;11.60;1.00
435;DHT22;204;48.942;9.256;2023-11-19T04:54:34;11.60;1.00
435;DHT22;204;48.942;9.256;2023-11-19T04:57:00;11.70;1.00
435;DHT22;204;48.942;9.256;2023-11-19T04:59:25;11.70;1.00
435;DHT22;204;48.942;9.256;2023-11-19T05:01:52;11.70;1.00
435;DHT22;204;48.942;9.256;2023-11-19T05:04:18;11.80;1.00
435;DHT22;204;48.942;9.256;2023-11-19T05:06:46;11.80;1.00
435;DHT22;204;48.942;9.256;2023-11-19T05:09:12;11.90;1.00
435;DHT22;204;48.942;9.256;2023-11-19T05:11:39;11.90;1.00
435;DHT22;204;48.942;9.256;2023-11-19T05:14:05;11.90;1.00
435;DHT22;204;48.942;9.256;2023-11-19T05:16:31;11.90;1.00
435;DHT22;204;48.942;9.256;2023-11-19T05:18:57;11.90;1.00
435;DHT22;204;48.942;9.256;2023-11-19T05:21:22;11.90;1.00
435;DHT22;204;48.942;9.256;2023-11-19T05:23:49;11.90;1.00
435;DHT22;204;48.942;9.256;2023-11-19T05:26:22;11.90;1.00
435;DHT22;204;48.942;9.256;2023-11-19T05:28:48;11.90;1.00
435;DHT22;204;48.942;9.256;2023-11-19T05:31:13;12.00;1.00
435;DHT22;204;48.942;9.256;2023-11-19T05:33:39;12.00;1.00
435;DHT22;204;48.942;9.256;2023-11-19T05:36:05;12.00;1.00
435;DHT22;204;48.942;9.256;2023-11-19T05:38:33;12.00;1.00
435;DHT22;204;48.942;9.256;2023-11-19T05:40:59;12.00;1.00
435;DHT22;204;48.942;9.256;2023-11-19T05:43:24;12.00;1.00
435;DHT22;204;48.942;9.256;2023-11-19T05:45:50;12.10;1.00
435;DHT22;204;48.942;9.256;2023-11-19T05:48:16;12.00;1.00
435;DHT22;204;48.942;9.256;2023-11-19T05:50:42;12.00;1.00
435;DHT22;204;48.942;9.256;2023-11-19T05:53:08;12.00;1.00
435;DHT22;204;48.942;9.256;2023-11-19T05:55:38;12.00;1.00
435;DHT22;204;48.942;9.256;2023-11-19T05:58:11;12.00;1.00
435;DHT22;204;48.942;9.256;2023-11-19T06:00:40;12.00;1.00
435;DHT22;204;48.942;9.256;2023-11-19T06:03:08;12.10;1.00
435;DHT22;204;48.942;9.256;2023-11-19T06:05:34;12.10;1.00
435;DHT22;204;48.942;9.256;2023-11-19T06:07:59;12.10;1.00
435;DHT22;204;48.942;9.256;2023-11-19T06:10:25;12.10;1.00
435;DHT22;204;48.942;9.256;2023-11-19T06:12:58;12.20;1.00
435;DHT22;204;48.942;9.256;2023-11-19T06:15:27;12.30;1.00
435;DHT22;204;48.942;9.256;2023-11-19T06:17:53;12.30;1.00
435;DHT22;204;48.942;9.256;2023-11-19T06:20:20;12.40;1.00
435;DHT22;204;48.942;9.256;2023-11-19T06:22:46;12.40;1.00
435;DHT22;204;48.942;9.256;2023-11-19T06:25:12;12.40;1.00
435;DHT22;204;48.942;9.256;2023-11-19T06:27:43;12.50;1.00
435;DHT22;204;48.942;9.256;2023-11-19T06:30:09;12.50;1.00
435;DHT22;204;48.942;9.256;2023-11-19T06:32:35;12.50;1.00
435;DHT22;204;48.942;9.256;2023-11-19T06:35:00;12.60;1.00
435;DHT22;204;48.942;9.256;2023-11-19T06:37:26;12.60;1.00
435;DHT22;204;48.942;9.256;2023-11-19T06:39:52;12.70;1.00
435;DHT22;204;48.942;9.256;2023-11-19T06:42:18;12.70;1.00
435;DHT22;204;48.942;9.256;2023-11-19T06:44:43;12.70;1.00
435;DHT22;204;48.942;9.256;2023-11-19T06:47:09;12.70;1.00
435;DHT22;204;48.942;9.256;2023-11-19T06:49:35;12.80;1.00
435;DHT22;204;48.942;9.256;2023-11-19T06:52:00;12.80;1.00
435;DHT22;204;48.942;9.256;2023-11-19T06:54:26;12.80;1.00
435;DHT22;204;48.942;9.256;2023-11-19T06:56:52;12.80;1.00
435;DHT22;204;48.942;9.256;2023-11-19T06:59:17;12.80;1.00
435;DHT22;204;48.942;9.256;2023-11-19T07:01:43;12.80;1.00
435;DHT22;204;48.942;9.256;2023-11-19T07:04:13;12.80;1.00
435;DHT22;204;48.942;9.256;2023-11-19T07:06:39;12.80;1.00
435;DHT22;204;48.942;9.256;2023-11-19T07:09:08;12.80;1.00
435;DHT22;204;48.942;9.256;2023-11-19T07:11:39;12.80;1.00
435;DHT22;204;48.942;9.256;2023-11-19T07:14:05;12.80;1.00
435;DHT22;204;48.942;9.256;2023-11-19T07:16:35;12.80;1.00
435;DHT22;204;48.942;9.256;2023-11-19T07:19:03;12.80;1.00
435;DHT22;204;48.942;9.256;2023-11-19T07:21:28;12.70;1.00
435;DHT22;204;48.942;9.256;2023-11-19T07:23:57;12.80;1.00
435;DHT22;204;48.942;9.256;2023-11-19T07:26:22;12.70;1.00
435;DHT22;204;48.942;9.256;2023-11-19T07:28:49;12.80;1.00
435;DHT22;204;48.942;9.256;2023-11-19T07:31:14;12.80;1.00
435;DHT22;204;48.942;9.256;2023-11-19T07:33:40;12.80;1.00
435;DHT22;204;48.942;9.256;2023-11-19T07:36:09;12.80;1.00
435;DHT22;204;48.942;9.256;2023-11-19T07:38:35;12.90;1.00
435;DHT22;204;48.942;9.256;2023-11-19T07:41:01;12.90;1.00
435;DHT22;204;48.942;9.256;2023-11-19T07:43:27;13.00;1.00
435;DHT22;204;48.942;9.256;2023-11-19T07:45:52;13.00;1.00
435;DHT22;204;48.942;9.256;2023-11-19T07:48:18;13.00;1.00
435;DHT22;204;48.942;9.256;2023-11-19T07:50:48;13.00;1.00
435;DHT22;204;48.942;9.256;2023-11-19T07:53:16;13.10;1.00
435;DHT22;204;48.942;9.256;2023-11-19T07:55:41;13.10;1.00
435;DHT22;204;48.942;9.256;2023-11-19T07:58:07;13.20;1.00
435;DHT22;204;48.942;9.256;2023-11-19T08:00:32;13.20;1.00
435;DHT22;204;48.942;9.256;2023-11-19T08:02:58;13.20;1.00
435;DHT22;204;48.942;9.256;2023-11-19T08:05:23;13.30;1.00
435;DHT22;204;48.942;9.256;2023-11-19T08:07:50;13.30;1.00
435;DHT22;204;48.942;9.256;2023-11-19T08:10:18;13.30;1.00
435;DHT22;204;48.942;9.256;2023-11-19T08:12:44;13.40;1.00
435;DHT22;204;48.942;9.256;2023-11-19T08:15:10;13.30;1.00
435;DHT22;204;48.942;9.256;2023-11-19T08:17:36;13.40;1.00
435;DHT22;204;48.942;9.256;2023-11-19T08:20:02;13.50;1.00
435;DHT22;204;48.942;9.256;2023-11-19T08:22:28;13.50;1.00
435;DHT22;204;48.942;9.256;2023-11-19T08:24:53;13.60;1.00
435;DHT22;204;48.942;9.256;2023-11-19T08:27:19;13.70;1.00
435;DHT22;204;48.942;9.256;2023-11-19T08:29:54;13.80;1.00
435;DHT22;204;48.942;9.256;2023-11-19T08:32:25;13.90;1.00
435;DHT22;204;48.942;9.256;2023-11-19T08:34:51;14.00;1.00
435;DHT22;204;48.942;9.256;2023-11-19T08:37:16;14.10;1.00
435;DHT22;204;48.942;9.256;2023-11-19T08:39:50;14.20;1.00
435;DHT22;204;48.942;9.256;2023-11-19T08:42:16;14.20;1.00
435;DHT22;204;48.942;9.256;2023-11-19T08:44:43;14.20;1.00
435;DHT22;204;48.942;9.256;2023-11-19T08:47:11;14.20;1.00
435;DHT22;204;48.942;9.256;2023-11-19T08:49:36;14.20;1.00
435;DHT22;204;48.942;9.256;2023-11-19T08:52:02;14.20;1.00
435;DHT22;204;48.942;9.256;2023-11-19T08:54:27;14.20;1.00
435;DHT22;204;48.942;9.256;2023-11-19T08:56:53;14.10;1.00
435;DHT22;204;48.942;9.256;2023-11-19T08:59:19;14.10;1.00
435;DHT22;204;48.942;9.256;2023-11-19T09:01:44;14.10;1.00
435;DHT22;204;48.942;9.256;2023-11-19T09:04:10;14.20;1.00
435;DHT22;204;48.942;9.256;2023-11-19T09:06:36;14.30;1.00
435;DHT22;204;48.942;9.256;2023-11-19T09:09:02;14.50;1.00
435;DHT22;204;48.942;9.256;2023-11-19T09:11:29;14.70;1.00
435;DHT22;204;48.942;9.256;2023-11-19T09:13:55;14.90;1.00
435;DHT22;204;48.942;9.256;2023-11-19T09:16:21;15.00;1.00
435;DHT22;204;48.942;9.256;2023-11-19T09:18:47;15.10;1.00
435;DHT22;204;48.942;9.256;2023-11-19T09:21:12;15.20;1.00
435;DHT22;204;48.942;9.256;2023-11-19T09:23:38;15.20;1.00
435;DHT22;204;48.942;9.256;2023-11-19T09:26:05;15.30;1.00
435;DHT22;204;48.942;9.256;2023-11-19T09:28:31;15.50;1.00
435;DHT22;204;48.942;9.256;2023-11-19T09:30:57;15.60;1.00
435;DHT22;204;48.942;9.256;2023-11-19T09:33:24;15.70;1.00
435;DHT22;204;48.942;9.256;2023-11-19T09:35:50;15.70;1.00
435;DHT22;204;48.942;9.256;2023-11-19T09:38:16;15.70;1.00
435;DHT22;204;48.942;9.256;2023-11-19T09:40:42;15.70;1.00
435;DHT22;204;48.942;9.256;2023-11-19T09:43:08;15.60;1.00
435;DHT22;204;48.942;9.256;2023-11-19T09:45:50;15.60;1.00
435;DHT22;204;48.942;9.256;2023-11-19T09:48:19;15.60;1.00
435;DHT22;204;48.942;9.256;2023-11-19T09:50:48;15.60;1.00
435;DHT22;204;48.942;9.256;2023-11-19T09:53:15;15.60;1.00
435;DHT22;204;48.942;9.256;2023-11-19T09:55:41;15.50;1.00
435;DHT22;204;48.942;9.256;2023-11-19T09:58:07;15.40;1.00
435;DHT22;204;48.942;9.256;2023-11-19T10:00:33;15.50;1.00
435;DHT22;204;48.942;9.256;2023-11-19T10:03:00;15.50;1.00
435;DHT22;204;48.942;9.256;2023-11-19T10:05:25;15.50;1.00
435;DHT22;204;48.942;9.256;2023-11-19T10:07:52;15.40;1.00
435;DHT22;204;48.942;9.256;2023-11-19T10:10:18;15.30;1.00
435;DHT22;204;48.942;9.256;2023-11-19T10:12:49;15.10;1.00
435;DHT22;204;48.942;9.256;2023-11-19T10:15:24;15.10;1.00
435;DHT22;204;48.942;9.256;2023-11-19T10:17:51;15.20;1.00
435;DHT22;204;48.942;9.256;2023-11-19T10:20:17;15.30;1.00
435;DHT22;204;48.942;9.256;2023-11-19T10:22:42;15.30;1.00
435;DHT22;204;48.942;9.256;2023-11-19T10:25:27;15.30;1.00
435;DHT22;204;48.942;9.256;2023-11-19T10:27:56;15.30;1.00
435;DHT22;204;48.942;9.256;2023-11-19T10:30:26;15.50;1.00
435;DHT22;204;48.942;9.256;2023-11-19T10:33:12;15.40;1.00
435;DHT22;204;48.942;9.256;2023-11-19T10:35:56;15.50;1.00
435;DHT22;204;48.942;9.256;2023-11-19T10:38:23;15.50;1.00
435;DHT22;204;48.942;9.256;2023-11-19T10:40:49;15.40;1.00
435;DHT22;204;48.942;9.256;2023-11-19T10:43:19;15.30;1.00
435;DHT22;204;48.942;9.256;2023-11-19T10:45:45;15.10;1.00
435;DHT22;204;48.942;9.256;2023-11-19T10:48:10;15.10;1.00
435;DHT22;204;48.942;9.256;2023-11-19T10:50:38;15.10;1.00
435;DHT22;204;48.942;9.256;2023-11-19T10:53:05;15.10;1.00
435;DHT22;204;48.942;9.256;2023-11-19T10:55:35;15.30;1.00
435;DHT22;204;48.942;9.256;2023-11-19T10:58:05;15.50;1.00
435;DHT22;204;48.942;9.256;2023-11-19T11:03:09;15.80;1.00
435;DHT22;204;48.942;9.256;2023-11-19T11:05:36;15.80;1.00
435;DHT22;204;48.942;9.256;2023-11-19T11:08:05;15.90;1.00
435;DHT22;204;48.942;9.256;2023-11-19T11:10:34;15.90;1.00
435;DHT22;204;48.942;9.256;2023-11-19T11:13:03;16.00;1.00
435;DHT22;204;48.942;9.256;2023-11-19T11:15:30;16.00;1.00
435;DHT22;204;48.942;9.256;2023-11-19T11:17:59;15.90;1.00
435;DHT22;204;48.942;9.256;2023-11-19T11:20:28;16.00;1.00
435;DHT22;204;48.942;9.256;2023-11-19T11:26:04;15.80;1.00
435;DHT22;204;48.942;9.256;2023-11-19T11:31:34;15.90;1.00
435;DHT22;204;48.942;9.256;2023-11-19T11:39:15;16.20;1.00
435;DHT22;204;48.942;9.256;2023-11-19T11:41:41;16.20;1.00
435;DHT22;204;48.942;9.256;2023-11-19T11:44:07;16.40;1.00
435;DHT22;204;48.942;9.256;2023-11-19T11:49:09;16.40;1.00
435;DHT22;204;48.942;9.256;2023-11-19T11:54:30;16.60;99.90
435;DHT22;204;48.942;9.256;2023-11-19T11:57:09;16.70;99.90
435;DHT22;204;48.942;9.256;2023-11-19T12:02:15;16.70;99.90
435;DHT22;204;48.942;9.256;2023-11-19T12:04:42;16.90;99.90
435;DHT22;204;48.942;9.256;2023-11-19T12:07:37;16.80;99.90
435;DHT22;204;48.942;9.256;2023-11-19T12:10:09;16.70;99.90
435;DHT22;204;48.942;9.256;2023-11-19T12:12:37;16.60;99.90
435;DHT22;204;48.942;9.256;2023-11-19T12:15:09;16.50;99.90
435;DHT22;204;48.942;9.256;2023-11-19T12:17:48;16.40;99.90
435;DHT22;204;48.942;9.256;2023-11-19T12:20:15;16.40;99.90
435;DHT22;204;48.942;9.256;2023-11-19T12:22:43;16.30;99.90
435;DHT22;204;48.942;9.256;2023-11-19T12:25:10;16.20;99.90
435;DHT22;204;48.942;9.256;2023-11-19T12:27:41;16.00;99.90
435;DHT22;204;48.942;9.256;2023-11-19T12:30:07;15.90;99.90
435;DHT22;204;48.942;9.256;2023-11-19T12:32:44;15.80;99.90
435;DHT22;204;48.942;9.256;2023-11-19T12:35:11;15.80;99.90
435;DHT22;204;48.942;9.256;2023-11-19T12:37:45;15.80;99.90
435;DHT22;204;48.942;9.256;2023-11-19T12:42:44;15.80;1.00
435;DHT22;204;48.942;9.256;2023-11-19T12:45:10;15.80;1.00
435;DHT22;204;48.942;9.256;2023-11-19T12:47:37;15.80;99.90
435;DHT22;204;48.942;9.256;2023-11-19T12:50:03;15.80;99.90
435;DHT22;204;48.942;9.256;2023-11-19T12:52:29;15.90;99.90
435;DHT22;204;48.942;9.256;2023-11-19T12:54:55;15.80;99.90
435;DHT22;204;48.942;9.256;2023-11-19T12:57:40;15.80;99.90
435;DHT22;204;48.942;9.256;2023-11-19T13:00:07;15.70;99.90
435;DHT22;204;48.942;9.256;2023-11-19T13:02:52;15.70;99.90
435;DHT22;204;48.942;9.256;2023-11-19T13:05:32;15.60;99.90
435;DHT22;204;48.942;9.256;2023-11-19T13:08:06;15.50;99.90
435;DHT22;204;48.942;9.256;2023-11-19T13:10:33;15.50;99.90
435;DHT22;204;48.942;9.256;2023-11-19T13:13:06;15.40;99.90
435;DHT22;204;48.942;9.256;2023-11-19T13:15:35;15.40;99.90
435;DHT22;204;48.942;9.256;2023-11-19T13:18:01;15.40;99.90
435;DHT22;204;48.942;9.256;2023-11-19T13:20:28;15.50;99.90
435;DHT22;204;48.942;9.256;2023-11-19T13:22:58;15.60;99.90
435;DHT22;204;48.942;9.256;2023-11-19T13:25:25;15.60;99.90
435;DHT22;204;48.942;9.256;2023-11-19T13:27:51;15.50;99.90
435;DHT22;204;48.942;9.256;2023-11-19T13:30:17;15.50;99.90
435;DHT22;204;48.942;9.256;2023-11-19T13:32:43;15.50;99.90
435;DHT22;204;48.942;9.256;2023-11-19T13:35:14;15.40;99.90
435;DHT22;204;48.942;9.256;2023-11-19T13:37:40;15.40;99.90
435;DHT22;204;48.942;9.256;2023-11-19T13:40:09;15.30;99.90
435;DHT22;204;48.942;9.256;2023-11-19T13:42:38;15.30;99.90
435;DHT22;204;48.942;9.256;2023-11-19T13:45:11;15.20;99.90
435;DHT22;204;48.942;9.256;2023-11-19T13:47:42;15.20;99.90
435;DHT22;204;48.942;9.256;2023-11-19T13:50:12;15.20;99.90
435;DHT22;204;48.942;9.256;2023-11-19T13:52:39;15.20;99.90
435;DHT22;204;48.942;9.256;2023-11-19T13:55:07;15.20;99.90
435;DHT22;204;48.942;9.256;2023-11-19T13:57:34;15.10;99.90
435;DHT22;204;48.942;9.256;2023-11-19T14:00:00;15.20;99.90
435;DHT22;204;48.942;9.256;2023-11-19T14:02:26;15.10;99.90
435;DHT22;204;48.942;9.256;2023-11-19T14:04:52;15.10;99.90
435;DHT22;204;48.942;9.256;2023-11-19T14:07:17;15.10;99.90
435;DHT22;204;48.942;9.256;2023-11-19T14:09:43;15.10;99.90
435;DHT22;204;48.942;9.256;2023-11-19T14:12:09;15.00;99.90
435;DHT22;204;48.942;9.256;2023-11-19T14:14:35;15.00;99.90
435;DHT22;204;48.942;9.256;2023-11-19T14:17:01;15.00;99.90
435;DHT22;204;48.942;9.256;2023-11-19T14:19:28;15.00;99.90
435;DHT22;204;48.942;9.256;2023-11-19T14:21:54;15.00;99.90
435;DHT22;204;48.942;9.256;2023-11-19T14:24:19;15.00;99.90
435;DHT22;204;48.942;9.256;2023-11-19T14:26:46;15.00;99.90
435;DHT22;204;48.942;9.256;2023-11-19T14:29:12;15.00;99.90
435;DHT22;204;48.942;9.256;2023-11-19T14:31:38;14.90;99.90
435;DHT22;204;48.942;9.256;2023-11-19T14:34:05;14.80;99.90
435;DHT22;204;48.942;9.256;2023-11-19T14:36:30;14.80;99.90
435;DHT22;204;48.942;9.256;2023-11-19T14:38:56;14.80;99.90
435;DHT22;204;48.942;9.256;2023-11-19T14:41:24;14.70;99.90
435;DHT22;204;48.942;9.256;2023-11-19T14:43:49;14.60;99.90
435;DHT22;204;48.942;9.256;2023-11-19T14:46:15;14.60;99.90
435;DHT22;204;48.942;9.256;2023-11-19T14:48:41;14.50;99.90
435;DHT22;204;48.942;9.256;2023-11-19T14:51:06;14.50;99.90
435;DHT22;204;48.942;9.256;2023-11-19T14:53:32;14.40;99.90
435;DHT22;204;48.942;9.256;2023-11-19T14:55:58;14.30;99.90
435;DHT22;204;48.942;9.256;2023-11-19T14:58:24;14.30;99.90
435;DHT22;204;48.942;9.256;2023-11-19T15:00:51;14.20;99.90
435;DHT22;204;48.942;9.256;2023-11-19T15:03:17;14.20;99.90
435;DHT22;204;48.942;9.256;2023-11-19T15:05:45;14.10;99.90
435;DHT22;204;48.942;9.256;2023-11-19T15:08:11;14.10;99.90
435;DHT22;204;48.942;9.256;2023-11-19T15:10:37;14.10;99.90
435;DHT22;204;48.942;9.256;2023-11-19T15:13:03;14.00;99.90
435;DHT22;204;48.942;9.256;2023-11-19T15:15:29;14.00;99.90
435;DHT22;204;48.942;9.256;2023-11-19T15:17:55;14.00;99.90
435;DHT22;204;48.942;9.256;2023-11-19T15:20:20;13.90;99.90
435;DHT22;204;48.942;9.256;2023-11-19T15:22:46;13.80;99.90
435;DHT22;204;48.942;9.256;2023-11-19T15:25:13;13.80;99.90
435;DHT22;204;48.942;9.256;2023-11-19T15:27:38;13.80;99.90
435;DHT22;204;48.942;9.256;2023-11-19T15:30:04;13.70;99.90
435;DHT22;204;48.942;9.256;2023-11-19T15:32:30;13.60;99.90
435;DHT22;204;48.942;9.256;2023-11-19T15:34:57;13.60;99.90
435;DHT22;204;48.942;9.256;2023-11-19T15:37:24;13.50;99.90
435;DHT22;204;48.942;9.256;2023-11-19T15:39:49;13.50;99.90
435;DHT22;204;48.942;9.256;2023-11-19T15:42:17;13.40;99.90
435;DHT22;204;48.942;9.256;2023-11-19T15:44:43;13.30;99.90
435;DHT22;204;48.942;9.256;2023-11-19T15:47:09;13.30;99.90
435;DHT22;204;48.942;9.256;2023-11-19T15:49:35;13.20;99.90
435;DHT22;204;48.942;9.256;2023-11-19T15:52:02;13.20;99.90
435;DHT22;204;48.942;9.256;2023-11-19T15:54:28;13.10;99.90
435;DHT22;204;48.942;9.256;2023-11-19T15:56:53;13.10;99.90
435;DHT22;204;48.942;9.256;2023-11-19T15:59:19;13.00;99.90
435;DHT22;204;48.942;9.256;2023-11-19T16:01:46;13.00;99.90
435;DHT22;204;48.942;9.256;2023-11-19T16:04:12;12.90;99.90
435;DHT22;204;48.942;9.256;2023-11-19T16:06:37;12.90;99.90
435;DHT22;204;48.942;9.256;2023-11-19T16:09:03;12.80;99.90
435;DHT22;204;48.942;9.256;2023-11-19T16:11:29;12.80;99.90
435;DHT22;204;48.942;9.256;2023-11-19T16:13:54;12.70;99.90
435;DHT22;204;48.942;9.256;2023-11-19T16:16:20;12.70;99.90
435;DHT22;204;48.942;9.256;2023-11-19T16:18:46;12.60;99.90
435;DHT22;204;48.942;9.256;2023-11-19T16:21:12;12.60;99.90
435;DHT22;204;48.942;9.256;2023-11-19T16:23:38;12.60;99.90
435;DHT22;204;48.942;9.256;2023-11-19T16:26:03;12.60;99.90
435;DHT22;204;48.942;9.256;2023-11-19T16:28:30;12.60;99.90
435;DHT22;204;48.942;9.256;2023-11-19T16:30:56;12.70;99.90
435;DHT22;204;48.942;9.256;2023-11-19T16:33:21;12.60;99.90
435;DHT22;204;48.942;9.256;2023-11-19T16:35:47;12.70;99.90
435;DHT22;204;48.942;9.256;2023-11-19T16:38:12;12.60;1.00
435;DHT22;204;48.942;9.256;2023-11-19T16:40:38;12.60;1.00
435;DHT22;204;48.942;9.256;2023-11-19T16:43:08;12.50;1.00
435;DHT22;204;48.942;9.256;2023-11-19T16:45:33;12.40;1.00
435;DHT22;204;48.942;9.256;2023-11-19T16:47:59;12.30;1.00
435;DHT22;204;48.942;9.256;2023-11-19T16:50:27;12.30;1.00
435;DHT22;204;48.942;9.256;2023-11-19T16:52:53;12.20;1.00
435;DHT22;204;48.942;9.256;2023-11-19T16:55:19;12.20;1.00
435;DHT22;204;48.942;9.256;2023-11-19T16:57:45;12.20;1.00
435;DHT22;204;48.942;9.256;2023-11-19T17:00:11;12.30;1.00
435;DHT22;204;48.942;9.256;2023-11-19T17:02:39;12.40;1.00
435;DHT22;204;48.942;9.256;2023-11-19T17:05:10;12.40;1.00
435;DHT22;204;48.942;9.256;2023-11-19T17:07:36;12.50;1.00
435;DHT22;204;48.942;9.256;2023-11-19T17:10:02;12.60;1.00
435;DHT22;204;48.942;9.256;2023-11-19T17:12:32;12.70;1.00